createdAt,value
2023-01-26T00:00:55.601Z,25.75
2023-01-26T00:03:25.081Z,22.77
2023-01-26T00:05:54.637Z,27.77
2023-01-26T00:08:24.056Z,24.83
2023-01-26T00:10:56.637Z,25.50
2023-01-26T00:13:26.027Z,21.25
2023-01-26T00:15:55.401Z,29.48
2023-01-26T00:18:24.856Z,24.58
2023-01-26T00:20:57.916Z,25.08
2023-01-26T00:23:29.260Z,23.88
2023-01-26T00:26:00.462Z,24.25
2023-01-26T00:28:30.397Z,29.77
2023-01-26T00:31:05.090Z,23.67
2023-01-26T00:33:34.784Z,24.60
2023-01-26T00:36:06.010Z,25.52
2023-01-26T00:38:35.634Z,27.35
2023-01-26T00:41:07.135Z,25.10
2023-01-26T00:43:36.538Z,24.38
2023-01-26T00:46:06.270Z,24.67
2023-01-26T00:48:38.069Z,28.55
2023-01-26T00:51:09.489Z,27.25
2023-01-26T00:53:38.874Z,25.77
2023-01-26T00:56:10.255Z,25.52
2023-01-26T00:58:40.484Z,25.48
2023-01-26T01:01:09.984Z,27.20
2023-01-26T01:03:39.499Z,24.05
2023-01-26T01:06:08.947Z,27.30
2023-01-26T01:08:38.357Z,25.77
2023-01-26T01:11:12.965Z,27.38
2023-01-26T01:13:42.937Z,26.05
2023-01-26T01:16:16.749Z,26.42
2023-01-26T01:18:46.446Z,29.25
2023-01-26T01:21:18.557Z,22.35
2023-01-26T01:23:48.950Z,28.27
2023-01-26T01:26:19.855Z,26.38
2023-01-26T01:28:49.414Z,25.15
2023-01-26T01:31:18.849Z,26.70
2023-01-26T01:33:48.263Z,21.60
2023-01-26T01:36:18.706Z,25.05
2023-01-26T01:38:49.332Z,24.98
2023-01-26T01:41:23.722Z,28.50
2023-01-26T01:44:18.900Z,27.30
2023-01-26T01:46:54.991Z,23.70
2023-01-26T01:49:30.379Z,23.13
2023-01-26T01:52:07.697Z,26.27
2023-01-26T01:54:44.120Z,27.33
2023-01-26T01:57:27.578Z,27.27
2023-01-26T02:00:06.175Z,27.80
2023-01-26T02:02:44.921Z,25.17
2023-01-26T02:05:26.841Z,28.98
2023-01-26T02:07:56.245Z,26.38
2023-01-26T02:10:27.209Z,28.08
2023-01-26T02:13:00.646Z,25.88
2023-01-26T02:18:11.395Z,26.17
2023-01-26T02:20:48.688Z,30.83
2023-01-26T02:23:35.839Z,24.63
2023-01-26T02:26:16.646Z,25.92
2023-01-26T02:28:48.956Z,26.30
2023-01-26T02:31:20.020Z,26.25
2023-01-26T02:33:51.273Z,22.33
2023-01-26T02:36:24.487Z,28.58
2023-01-26T02:42:00.608Z,26.48
2023-01-26T02:44:31.557Z,26.73
2023-01-26T02:47:01.350Z,22.73
2023-01-26T02:49:48.446Z,25.15
2023-01-26T02:52:22.473Z,20.67
2023-01-26T02:55:16.139Z,24.98
2023-01-26T02:57:48.306Z,27.52
2023-01-26T03:00:20.441Z,21.98
2023-01-26T03:02:54.091Z,25.25
2023-01-26T03:05:23.584Z,24.95
2023-01-26T03:07:53.920Z,23.08
2023-01-26T03:10:26.970Z,21.80
2023-01-26T03:12:57.741Z,23.88
2023-01-26T03:15:43.531Z,21.98
2023-01-26T03:18:34.979Z,22.05
2023-01-26T03:21:25.792Z,22.88
2023-01-26T03:24:12.802Z,23.25
2023-01-26T03:27:08.758Z,25.35
2023-01-26T03:29:40.492Z,20.90
2023-01-26T03:32:10.058Z,28.33
2023-01-26T03:34:40.877Z,28.00
2023-01-26T03:37:10.546Z,26.10
2023-01-26T03:40:08.808Z,26.92
2023-01-26T03:42:57.200Z,25.35
2023-01-26T03:45:45.522Z,21.52
2023-01-26T03:48:32.451Z,26.77
2023-01-26T03:51:21.682Z,24.92
2023-01-26T03:54:08.842Z,24.65
2023-01-26T03:56:38.439Z,27.95
2023-01-26T03:59:15.668Z,22.65
2023-01-26T04:02:06.750Z,22.60
2023-01-26T04:04:55.514Z,24.42
2023-01-26T04:07:46.571Z,23.92
2023-01-26T04:10:17.122Z,21.75
2023-01-26T04:13:00.439Z,20.80
2023-01-26T04:15:48.044Z,18.90
2023-01-26T04:18:36.557Z,20.05
2023-01-26T04:21:25.164Z,22.02
2023-01-26T04:23:57.214Z,23.60
2023-01-26T04:26:34.733Z,22.60
2023-01-26T04:29:08.091Z,22.02
2023-01-26T04:31:38.280Z,21.43
2023-01-26T04:34:14.146Z,30.38
2023-01-26T04:36:45.915Z,21.40
2023-01-26T04:39:17.534Z,21.67
2023-01-26T04:41:50.772Z,22.35
2023-01-26T04:44:22.110Z,21.65
2023-01-26T04:46:51.965Z,22.60
2023-01-26T04:49:25.180Z,20.77
2023-01-26T04:51:55.029Z,25.40
2023-01-26T04:54:25.341Z,23.23
2023-01-26T04:56:55.272Z,22.50
2023-01-26T04:59:24.937Z,21.48
2023-01-26T05:01:58.735Z,19.58
2023-01-26T05:04:30.288Z,23.30
2023-01-26T05:06:59.929Z,23.40
2023-01-26T05:09:30.197Z,19.33
2023-01-26T05:12:34.813Z,20.83
2023-01-26T05:15:22.500Z,21.90
2023-01-26T05:18:15.123Z,20.98
2023-01-26T05:21:04.024Z,22.63
2023-01-26T05:23:41.636Z,22.85
2023-01-26T05:26:29.743Z,21.63
2023-01-26T05:31:32.689Z,16.50
2023-01-26T05:34:02.098Z,18.90
2023-01-26T05:36:33.475Z,22.00
2023-01-26T05:39:03.019Z,23.05
2023-01-26T05:41:33.400Z,27.60
2023-01-26T05:44:21.118Z,22.50
2023-01-26T05:46:54.794Z,23.10
2023-01-26T05:49:24.598Z,20.58
2023-01-26T05:51:56.471Z,20.73
2023-01-26T05:54:27.077Z,20.52
2023-01-26T05:56:57.834Z,19.75
2023-01-26T05:59:29.067Z,21.30
2023-01-26T06:01:58.680Z,24.92
2023-01-26T06:04:29.155Z,20.55
2023-01-26T06:07:02.767Z,21.40
2023-01-26T06:09:38.128Z,20.63
2023-01-26T06:12:17.663Z,21.00
2023-01-26T06:14:59.389Z,17.90
2023-01-26T06:17:37.660Z,18.70
2023-01-26T06:20:12.612Z,18.90
2023-01-26T06:22:43.728Z,20.65
2023-01-26T06:25:13.231Z,18.70
2023-01-26T06:27:42.799Z,21.10
2023-01-26T06:30:28.872Z,17.77
2023-01-26T06:33:03.208Z,21.75
2023-01-26T06:35:37.155Z,21.10
2023-01-26T06:38:10.383Z,21.70
2023-01-26T06:40:39.890Z,22.33
2023-01-26T06:43:09.283Z,21.02
2023-01-26T06:45:39.046Z,17.80
2023-01-26T06:48:08.474Z,17.33
2023-01-26T06:50:38.110Z,18.10
2023-01-26T06:53:30.873Z,20.20
2023-01-26T06:56:18.770Z,16.45
2023-01-26T06:59:11.581Z,16.50
2023-01-26T07:02:00.321Z,14.98
2023-01-26T07:04:29.714Z,17.65
2023-01-26T07:06:59.222Z,16.88
2023-01-26T07:09:30.673Z,19.90
2023-01-26T07:12:00.119Z,17.27
2023-01-26T07:14:29.553Z,14.38
2023-01-26T07:16:59.015Z,16.25
2023-01-26T07:19:30.338Z,15.88
2023-01-26T07:21:59.838Z,15.70
2023-01-26T07:24:31.128Z,18.98
2023-01-26T07:27:00.554Z,14.90
2023-01-26T07:29:29.923Z,16.23
2023-01-26T07:31:59.378Z,17.08
2023-01-26T07:34:28.829Z,17.40
2023-01-26T07:36:58.372Z,17.40
2023-01-26T07:39:27.877Z,16.42
2023-01-26T07:41:58.710Z,17.45
2023-01-26T07:44:48.862Z,16.60
2023-01-26T07:47:20.028Z,18.13
2023-01-26T07:49:49.403Z,17.67
2023-01-26T07:52:19.009Z,16.90
2023-01-26T07:54:48.404Z,17.85
2023-01-26T07:57:19.169Z,18.65
2023-01-26T07:59:48.632Z,17.55
2023-01-26T08:02:18.123Z,15.55
2023-01-26T08:04:47.670Z,11.43
2023-01-26T08:07:17.441Z,13.25
2023-01-26T08:09:46.857Z,11.82
2023-01-26T08:12:16.246Z,15.80
2023-01-26T08:14:47.436Z,12.60
2023-01-26T08:17:17.761Z,13.88
2023-01-26T08:19:47.835Z,11.93
2023-01-26T08:22:17.390Z,13.55
2023-01-26T08:24:46.776Z,16.35
2023-01-26T08:27:16.236Z,13.68
2023-01-26T08:29:47.067Z,13.10
2023-01-26T08:32:16.570Z,15.27
2023-01-26T08:34:48.363Z,11.50
2023-01-26T08:37:17.839Z,13.38
2023-01-26T08:39:47.187Z,14.88
2023-01-26T08:42:16.960Z,14.30
2023-01-26T08:44:47.817Z,17.70
2023-01-26T08:47:17.241Z,14.52
2023-01-26T08:49:46.686Z,15.95
2023-01-26T08:52:16.691Z,16.27
2023-01-26T08:54:46.206Z,15.25
2023-01-26T08:57:15.610Z,13.45
2023-01-26T08:59:45.063Z,14.30
2023-01-26T09:02:15.987Z,14.75
2023-01-26T09:04:45.497Z,16.40
2023-01-26T09:07:15.021Z,14.57
2023-01-26T09:09:44.909Z,18.00
2023-01-26T09:12:14.310Z,14.50
2023-01-26T09:14:43.678Z,15.38
2023-01-26T09:17:13.035Z,16.23
2023-01-26T09:19:44.998Z,19.48
2023-01-26T09:22:14.518Z,16.70
2023-01-26T09:24:44.193Z,18.42
2023-01-26T09:27:13.560Z,15.57
2023-01-26T09:29:43.036Z,16.15
2023-01-26T09:32:12.518Z,15.68
2023-01-26T09:34:45.779Z,15.05
2023-01-26T09:37:16.185Z,17.85
2023-01-26T09:39:45.827Z,16.52
2023-01-26T09:42:39.195Z,18.85
2023-01-26T09:45:28.422Z,14.38
2023-01-26T09:48:25.196Z,12.60
2023-01-26T09:51:07.655Z,15.82
2023-01-26T09:53:47.917Z,14.13
2023-01-26T09:56:21.171Z,18.08
2023-01-26T09:58:57.481Z,15.35
2023-01-26T10:01:38.387Z,16.42
2023-01-26T10:04:21.490Z,15.73
2023-01-26T10:06:54.832Z,13.10
2023-01-26T10:09:49.456Z,9.90
2023-01-26T10:12:25.921Z,17.80
2023-01-26T10:15:02.786Z,20.35
2023-01-26T10:17:36.810Z,17.40
2023-01-26T10:20:19.528Z,18.67
2023-01-26T10:22:54.380Z,22.93
2023-01-26T10:25:35.330Z,20.63
2023-01-26T10:28:15.349Z,21.90
2023-01-26T10:30:48.334Z,19.50
2023-01-26T10:33:25.833Z,21.10
2023-01-26T10:35:56.057Z,19.38
2023-01-26T10:38:41.807Z,22.75
2023-01-26T10:41:28.286Z,24.40
2023-01-26T10:44:00.810Z,25.10
2023-01-26T10:46:35.272Z,20.17
2023-01-26T10:49:17.119Z,20.65
2023-01-26T10:52:07.321Z,20.10
2023-01-26T10:54:39.544Z,21.63
2023-01-26T10:57:28.544Z,18.52
2023-01-26T11:00:00.268Z,17.55
2023-01-26T11:02:32.403Z,19.00
2023-01-26T11:05:24.380Z,20.40
2023-01-26T11:08:00.205Z,22.25
2023-01-26T11:10:36.171Z,18.30
2023-01-26T11:13:19.954Z,18.48
2023-01-26T11:15:53.416Z,15.23
2023-01-26T11:18:42.432Z,17.90
2023-01-26T11:21:17.322Z,20.60
2023-01-26T11:24:06.091Z,22.02
2023-01-26T11:27:29.906Z,20.63
2023-01-26T11:30:28.296Z,19.93
2023-01-26T11:33:07.736Z,22.85
2023-01-26T11:35:52.576Z,23.10
2023-01-26T11:38:37.325Z,19.17
2023-01-26T11:41:29.129Z,18.15
2023-01-26T11:44:55.268Z,16.50
2023-01-26T11:47:46.354Z,17.05
2023-01-26T11:50:36.849Z,17.67
2023-01-26T11:53:32.853Z,16.85
2023-01-26T11:56:25.716Z,17.02
2023-01-26T11:59:02.719Z,18.02
2023-01-26T12:01:42.694Z,16.75
2023-01-26T12:04:22.271Z,16.83
2023-01-26T12:06:59.185Z,19.90
2023-01-26T12:09:38.558Z,17.35
2023-01-26T12:12:15.386Z,19.13
2023-01-26T12:14:54.325Z,23.52
2023-01-26T12:17:43.329Z,17.70
2023-01-26T12:20:37.483Z,14.20
2023-01-26T12:23:18.498Z,17.38
2023-01-26T12:25:55.643Z,17.77
2023-01-26T12:28:32.782Z,16.25
2023-01-26T12:31:14.218Z,16.88
2023-01-26T12:33:45.915Z,23.00
2023-01-26T12:36:29.240Z,18.98
2023-01-26T12:39:14.938Z,15.40
2023-01-26T12:42:18.782Z,22.13
2023-01-26T12:44:55.353Z,14.35
2023-01-26T12:47:33.044Z,15.60
2023-01-26T12:50:12.643Z,16.40
2023-01-26T12:52:48.696Z,13.45
2023-01-26T12:55:25.167Z,18.40
2023-01-26T12:58:00.140Z,16.17
2023-01-26T13:00:33.805Z,27.67
2023-01-26T13:03:15.266Z,17.95
2023-01-26T13:06:03.448Z,21.95
2023-01-26T13:08:53.907Z,20.48
2023-01-26T13:11:46.470Z,17.23
2023-01-26T13:14:38.938Z,18.70
2023-01-26T13:17:59.836Z,21.95
2023-01-26T13:20:51.000Z,15.48
2023-01-26T13:23:45.489Z,17.60
2023-01-26T13:26:47.321Z,17.50
2023-01-26T13:29:36.131Z,24.00
2023-01-26T13:33:06.444Z,17.30
2023-01-26T13:35:38.009Z,19.98
2023-01-26T13:38:21.321Z,16.77
2023-01-26T13:40:52.308Z,17.58
2023-01-26T13:43:33.768Z,16.73
2023-01-26T13:46:15.362Z,19.00
2023-01-26T13:48:49.206Z,19.42
2023-01-26T13:51:23.850Z,18.63
2023-01-26T13:54:05.697Z,16.70
2023-01-26T13:56:39.844Z,17.00
2023-01-26T14:00:49.951Z,19.48
2023-01-26T14:03:23.134Z,25.52
2023-01-26T14:05:57.827Z,22.05
2023-01-26T14:08:27.628Z,20.80
2023-01-26T14:10:57.526Z,21.85
2023-01-26T14:13:37.685Z,23.60
2023-01-26T14:16:23.612Z,21.88
2023-01-26T14:19:05.735Z,18.50
2023-01-26T14:21:46.643Z,16.83
2023-01-26T14:24:16.534Z,17.85
2023-01-26T14:26:46.423Z,19.17
2023-01-26T14:29:24.426Z,19.30
2023-01-26T14:31:57.959Z,16.90
2023-01-26T14:34:30.849Z,17.40
2023-01-26T14:37:14.517Z,17.65
2023-01-26T14:42:21.413Z,17.38
2023-01-26T14:44:52.182Z,19.00
2023-01-26T14:47:26.754Z,17.77
2023-01-26T14:50:30.724Z,18.15
2023-01-26T14:53:01.497Z,19.95
2023-01-26T14:55:36.143Z,22.40
2023-01-26T14:58:19.988Z,19.38
2023-01-26T15:00:52.160Z,17.77
2023-01-26T15:03:30.930Z,17.40
2023-01-26T15:06:23.810Z,17.95
2023-01-26T15:09:04.101Z,21.48
2023-01-26T15:11:57.649Z,22.13
2023-01-26T15:14:36.875Z,20.20
2023-01-26T15:17:07.758Z,20.42
2023-01-26T15:19:45.968Z,19.00
2023-01-26T15:22:24.265Z,15.73
2023-01-26T15:25:20.010Z,16.70
2023-01-26T15:27:57.457Z,19.23
2023-01-26T15:30:32.860Z,18.55
2023-01-26T15:33:04.698Z,13.57
2023-01-26T15:35:35.952Z,16.83
2023-01-26T15:38:10.837Z,17.42
2023-01-26T15:40:41.266Z,16.40
2023-01-26T15:43:15.897Z,15.73
2023-01-26T15:45:53.553Z,17.65
2023-01-26T15:48:26.825Z,18.17
2023-01-26T15:53:27.076Z,15.13
2023-01-26T15:55:58.500Z,17.70
2023-01-26T15:58:28.759Z,18.17
2023-01-26T16:00:58.840Z,16.83
2023-01-26T16:03:29.550Z,18.95
2023-01-26T16:05:59.327Z,17.67
2023-01-26T16:08:28.794Z,15.57
2023-01-26T16:10:59.662Z,17.58
2023-01-26T16:13:29.109Z,14.93
2023-01-26T16:16:01.726Z,17.63
2023-01-26T16:18:32.698Z,12.93
2023-01-26T16:21:02.298Z,16.13
2023-01-26T16:23:31.944Z,14.55
2023-01-26T16:26:01.387Z,15.00
2023-01-26T16:28:30.760Z,16.83
2023-01-26T16:31:02.528Z,20.00
2023-01-26T16:33:33.428Z,18.98
2023-01-26T16:36:02.823Z,15.55
2023-01-26T16:38:32.294Z,14.52
2023-01-26T16:41:01.862Z,13.65
2023-01-26T16:43:32.537Z,15.98
2023-01-26T16:46:01.935Z,13.13
2023-01-26T16:48:34.864Z,16.02
2023-01-26T16:51:20.704Z,14.13
2023-01-26T16:53:50.980Z,19.35
2023-01-26T16:56:21.666Z,16.50
2023-01-26T16:58:51.199Z,16.88
2023-01-26T17:01:24.189Z,16.63
2023-01-26T17:03:55.927Z,16.00
2023-01-26T17:06:25.848Z,16.55
2023-01-26T17:08:55.570Z,16.70
2023-01-26T17:11:28.412Z,16.75
2023-01-26T17:13:59.359Z,13.85
2023-01-26T17:16:32.020Z,17.02
2023-01-26T17:19:02.995Z,16.52
2023-01-26T17:21:32.649Z,16.05
2023-01-26T17:24:02.045Z,16.00
2023-01-26T17:26:31.385Z,15.07
2023-01-26T17:29:00.916Z,17.85
2023-01-26T17:31:31.676Z,13.88
2023-01-26T17:34:02.675Z,16.48
2023-01-26T17:36:32.096Z,14.70
2023-01-26T17:39:01.538Z,17.15
2023-01-26T17:41:30.924Z,13.18
2023-01-26T17:44:00.324Z,13.35
2023-01-26T17:46:29.904Z,14.07
2023-01-26T17:48:59.298Z,13.02
2023-01-26T17:51:30.082Z,13.85
2023-01-26T17:53:59.477Z,17.23
2023-01-26T17:56:30.806Z,18.58
2023-01-26T17:59:00.363Z,13.80
2023-01-26T18:01:29.810Z,22.75
2023-01-26T18:03:59.425Z,14.38
2023-01-26T18:06:31.198Z,16.98
2023-01-26T18:09:00.690Z,14.80
2023-01-26T18:11:30.214Z,11.35
2023-01-26T18:13:59.728Z,20.75
2023-01-26T18:16:29.438Z,13.35
2023-01-26T18:19:01.028Z,14.20
2023-01-26T18:21:34.436Z,12.65
2023-01-26T18:24:07.066Z,13.07
2023-01-26T18:26:39.121Z,13.15
2023-01-26T18:29:08.771Z,16.42
2023-01-26T18:31:41.569Z,15.23
2023-01-26T18:34:12.983Z,10.57
2023-01-26T18:36:43.843Z,13.35
2023-01-26T18:39:16.780Z,11.27
2023-01-26T18:41:46.217Z,12.10
2023-01-26T18:44:15.672Z,14.55
2023-01-26T18:46:45.096Z,15.60
2023-01-26T18:49:14.522Z,12.13
2023-01-26T18:51:48.045Z,17.42
2023-01-26T18:54:20.057Z,15.23
2023-01-26T18:56:49.491Z,23.40
2023-01-26T18:59:18.908Z,17.65
2023-01-26T19:01:48.737Z,14.88
2023-01-26T19:04:18.527Z,14.02
2023-01-26T19:06:49.357Z,12.02
2023-01-26T19:09:22.533Z,15.70
2023-01-26T19:11:52.318Z,16.08
2023-01-26T19:14:22.567Z,16.13
2023-01-26T19:16:52.146Z,15.65
2023-01-26T19:19:21.838Z,15.13
2023-01-26T19:21:52.699Z,19.52
2023-01-26T19:24:22.820Z,15.07
2023-01-26T19:26:52.344Z,14.23
2023-01-26T19:29:21.831Z,15.60
2023-01-26T19:31:51.410Z,16.48
2023-01-26T19:34:20.788Z,15.93
2023-01-26T19:36:50.247Z,14.57
2023-01-26T19:39:20.984Z,14.55
2023-01-26T19:41:50.576Z,13.55
2023-01-26T19:44:20.636Z,13.02
2023-01-26T19:46:52.971Z,11.50
2023-01-26T19:49:22.827Z,15.50
2023-01-26T19:51:53.218Z,12.57
2023-01-26T19:54:24.029Z,12.70
2023-01-26T19:56:53.432Z,13.57
2023-01-26T19:59:22.830Z,15.73
2023-01-26T20:01:52.166Z,14.57
2023-01-26T20:04:21.611Z,15.20
2023-01-26T20:06:51.061Z,17.55
2023-01-26T20:09:20.487Z,17.15
2023-01-26T20:11:52.570Z,15.98
2023-01-26T20:14:22.198Z,12.00
2023-01-26T20:16:51.635Z,16.15
2023-01-26T20:19:21.166Z,18.83
2023-01-26T20:21:50.921Z,22.67
2023-01-26T20:24:20.410Z,15.40
2023-01-26T20:26:51.477Z,18.20
2023-01-26T20:29:21.672Z,18.23
2023-01-26T20:31:51.973Z,19.83
2023-01-26T20:34:22.027Z,17.25
2023-01-26T20:36:54.582Z,17.63
2023-01-26T20:39:25.181Z,17.63
2023-01-26T20:41:58.045Z,18.50
2023-01-26T20:44:27.424Z,21.38
2023-01-26T20:46:57.139Z,16.52
2023-01-26T20:49:26.613Z,20.77
2023-01-26T20:51:55.989Z,18.52
2023-01-26T20:54:25.473Z,17.70
2023-01-26T20:56:55.000Z,18.40
2023-01-26T20:59:26.741Z,24.98
2023-01-26T21:01:56.182Z,21.73
2023-01-26T21:04:26.804Z,20.83
2023-01-26T21:06:56.212Z,20.30
2023-01-26T21:09:25.673Z,19.02
2023-01-26T21:11:55.029Z,20.60
2023-01-26T21:14:25.723Z,18.70
2023-01-26T21:16:55.641Z,18.77
2023-01-26T21:19:25.130Z,19.65
2023-01-26T21:21:54.634Z,21.05
2023-01-26T21:24:24.092Z,19.33
2023-01-26T21:26:53.499Z,18.02
2023-01-26T21:29:23.360Z,19.92
2023-01-26T21:31:54.088Z,26.17
2023-01-26T21:34:23.537Z,19.50
2023-01-26T21:36:52.907Z,19.15
2023-01-26T21:39:22.362Z,20.90
2023-01-26T21:41:57.601Z,21.00
2023-01-26T21:44:29.612Z,20.25
2023-01-26T21:47:03.940Z,19.90
2023-01-26T21:49:33.392Z,17.08
2023-01-26T21:52:20.091Z,15.77
2023-01-26T21:54:49.528Z,19.67
2023-01-26T21:57:36.632Z,19.45
2023-01-26T22:00:08.048Z,18.48
2023-01-26T22:02:38.784Z,19.77
2023-01-26T22:05:09.822Z,20.50
2023-01-26T22:07:39.399Z,19.83
2023-01-26T22:10:12.445Z,22.00
2023-01-26T22:12:42.351Z,13.07
2023-01-26T22:15:13.766Z,20.83
2023-01-26T22:17:44.631Z,21.77
2023-01-26T22:20:14.449Z,21.17
2023-01-26T22:22:44.075Z,19.55
2023-01-26T22:25:13.485Z,23.35
2023-01-26T22:27:43.024Z,23.73
2023-01-26T22:30:14.033Z,23.10
2023-01-26T22:32:45.558Z,20.67
2023-01-26T22:35:15.767Z,23.15
2023-01-26T22:37:45.531Z,26.95
2023-01-26T22:40:15.617Z,25.30
2023-01-26T22:42:44.994Z,28.52
2023-01-26T22:45:15.335Z,23.88
2023-01-26T22:47:46.324Z,19.48
2023-01-26T22:50:16.493Z,20.98
2023-01-26T22:52:45.894Z,20.05
2023-01-26T22:55:15.608Z,20.55
2023-01-26T22:57:45.106Z,21.63
2023-01-26T23:00:15.879Z,19.65
2023-01-26T23:02:46.653Z,21.98
2023-01-26T23:05:16.227Z,19.52
2023-01-26T23:07:45.893Z,17.02
2023-01-26T23:10:15.963Z,20.92
2023-01-26T23:12:45.293Z,25.35
2023-01-26T23:15:14.797Z,22.38
2023-01-26T23:17:44.202Z,20.17
2023-01-26T23:20:15.306Z,18.77
2023-01-26T23:22:44.645Z,26.83
2023-01-26T23:25:31.898Z,24.20
2023-01-26T23:28:04.298Z,21.65
2023-01-26T23:30:34.086Z,19.67
2023-01-26T23:33:03.546Z,26.02
2023-01-26T23:35:34.328Z,21.48
2023-01-26T23:38:04.074Z,21.58
2023-01-26T23:40:34.557Z,19.38
2023-01-26T23:43:16.164Z,22.50
2023-01-26T23:45:48.639Z,21.40
2023-01-26T23:48:18.939Z,19.60
2023-01-26T23:50:49.734Z,22.05
2023-01-26T23:53:19.072Z,20.73
2023-01-26T23:55:48.461Z,22.13
2023-01-26T23:58:17.838Z,20.90
